sensor_id;sensor_type;location;lat;lon;timestamp;P1;durP1;ratioP1;P2;durP2;ratioP2
15102;SDS011;7652;53.584;9.998;2023-03-14T00:00:38;3.20;;;2.00;;
15102;SDS011;7652;53.584;9.998;2023-03-14T00:03:41;2.77;;;2.13;;
15102;SDS011;7652;53.584;9.998;2023-03-14T00:06:46;2.23;;;1.83;;
15102;SDS011;7652;53.584;9.998;2023-03-14T00:09:51;5.30;;;2.37;;
15102;SDS011;7652;53.584;9.998;2023-03-14T00:12:54;2.80;;;2.03;;
15102;SDS011;7652;53.584;9.998;2023-03-14T00:16:01;4.27;;;2.00;;
15102;SDS011;7652;53.584;9.998;2023-03-14T00:19:05;3.03;;;2.27;;
15102;SDS011;7652;53.584;9.998;2023-03-14T00:22:09;5.30;;;2.03;;
15102;SDS011;7652;53.584;9.998;2023-03-14T00:25:12;7.33;;;2.37;;
15102;SDS011;7652;53.584;9.998;2023-03-14T00:28:15;6.50;;;2.37;;
15102;SDS011;7652;53.584;9.998;2023-03-14T00:31:18;3.97;;;1.97;;
15102;SDS011;7652;53.584;9.998;2023-03-14T00:34:22;8.30;;;2.20;;
15102;SDS011;7652;53.584;9.998;2023-03-14T00:37:26;5.80;;;2.13;;
15102;SDS011;7652;53.584;9.998;2023-03-14T00:40:30;3.97;;;1.83;;
15102;SDS011;7652;53.584;9.998;2023-03-14T00:43:33;5.63;;;2.23;;
15102;SDS011;7652;53.584;9.998;2023-03-14T00:46:36;5.10;;;2.07;;
15102;SDS011;7652;53.584;9.998;2023-03-14T00:49:41;8.50;;;2.20;;
15102;SDS011;7652;53.584;9.998;2023-03-14T00:52:46;7.10;;;2.37;;
15102;SDS011;7652;53.584;9.998;2023-03-14T00:55:50;8.20;;;1.70;;
15102;SDS011;7652;53.584;9.998;2023-03-14T00:58:53;4.43;;;2.07;;
15102;SDS011;7652;53.584;9.998;2023-03-14T01:01:57;3.77;;;1.80;;
15102;SDS011;7652;53.584;9.998;2023-03-14T01:05:00;4.93;;;1.97;;
15102;SDS011;7652;53.584;9.998;2023-03-14T01:08:05;6.60;;;1.90;;
15102;SDS011;7652;53.584;9.998;2023-03-14T01:11:09;7.80;;;2.07;;
15102;SDS011;7652;53.584;9.998;2023-03-14T01:14:14;6.23;;;2.27;;
15102;SDS011;7652;53.584;9.998;2023-03-14T01:17:17;5.73;;;1.90;;
15102;SDS011;7652;53.584;9.998;2023-03-14T01:20:20;5.60;;;1.77;;
15102;SDS011;7652;53.584;9.998;2023-03-14T01:23:24;6.03;;;1.77;;
15102;SDS011;7652;53.584;9.998;2023-03-14T01:26:29;5.90;;;2.50;;
15102;SDS011;7652;53.584;9.998;2023-03-14T01:29:33;4.27;;;1.80;;
15102;SDS011;7652;53.584;9.998;2023-03-14T01:32:36;5.63;;;2.40;;
15102;SDS011;7652;53.584;9.998;2023-03-14T01:35:39;3.50;;;1.67;;
15102;SDS011;7652;53.584;9.998;2023-03-14T01:38:44;5.33;;;2.20;;
15102;SDS011;7652;53.584;9.998;2023-03-14T01:41:47;7.27;;;2.13;;
15102;SDS011;7652;53.584;9.998;2023-03-14T01:44:51;6.77;;;2.27;;
15102;SDS011;7652;53.584;9.998;2023-03-14T01:47:55;7.10;;;2.00;;
15102;SDS011;7652;53.584;9.998;2023-03-14T01:50:58;8.77;;;1.93;;
15102;SDS011;7652;53.584;9.998;2023-03-14T01:54:06;4.30;;;2.10;;
15102;SDS011;7652;53.584;9.998;2023-03-14T01:57:15;8.07;;;2.17;;
15102;SDS011;7652;53.584;9.998;2023-03-14T02:00:22;4.03;;;1.63;;
15102;SDS011;7652;53.584;9.998;2023-03-14T02:03:25;4.77;;;2.07;;
15102;SDS011;7652;53.584;9.998;2023-03-14T02:06:32;4.13;;;2.17;;
15102;SDS011;7652;53.584;9.998;2023-03-14T02:09:42;6.77;;;2.30;;
15102;SDS011;7652;53.584;9.998;2023-03-14T02:12:46;7.37;;;2.33;;
15102;SDS011;7652;53.584;9.998;2023-03-14T02:15:50;8.70;;;3.00;;
15102;SDS011;7652;53.584;9.998;2023-03-14T02:18:53;5.73;;;2.00;;
15102;SDS011;7652;53.584;9.998;2023-03-14T02:21:57;7.77;;;2.30;;
15102;SDS011;7652;53.584;9.998;2023-03-14T02:25:06;8.37;;;2.53;;
15102;SDS011;7652;53.584;9.998;2023-03-14T02:28:14;5.67;;;2.20;;
15102;SDS011;7652;53.584;9.998;2023-03-14T02:31:17;7.27;;;2.37;;
15102;SDS011;7652;53.584;9.998;2023-03-14T02:34:20;5.10;;;2.10;;
15102;SDS011;7652;53.584;9.998;2023-03-14T02:37:24;5.00;;;2.20;;
15102;SDS011;7652;53.584;9.998;2023-03-14T02:40:30;7.00;;;2.27;;
15102;SDS011;7652;53.584;9.998;2023-03-14T02:43:35;7.97;;;2.03;;
15102;SDS011;7652;53.584;9.998;2023-03-14T02:46:38;4.83;;;1.93;;
15102;SDS011;7652;53.584;9.998;2023-03-14T02:49:41;6.27;;;2.30;;
15102;SDS011;7652;53.584;9.998;2023-03-14T02:52:44;6.93;;;2.60;;
15102;SDS011;7652;53.584;9.998;2023-03-14T02:55:47;7.87;;;2.90;;
15102;SDS011;7652;53.584;9.998;2023-03-14T02:58:52;3.67;;;2.13;;
15102;SDS011;7652;53.584;9.998;2023-03-14T03:01:55;9.33;;;2.43;;
15102;SDS011;7652;53.584;9.998;2023-03-14T03:04:58;6.67;;;2.47;;
15102;SDS011;7652;53.584;9.998;2023-03-14T03:08:01;5.40;;;2.57;;
15102;SDS011;7652;53.584;9.998;2023-03-14T03:11:05;7.43;;;2.60;;
15102;SDS011;7652;53.584;9.998;2023-03-14T03:14:10;3.63;;;2.07;;
15102;SDS011;7652;53.584;9.998;2023-03-14T03:17:13;2.73;;;2.10;;
15102;SDS011;7652;53.584;9.998;2023-03-14T03:20:16;3.67;;;2.10;;
15102;SDS011;7652;53.584;9.998;2023-03-14T03:23:19;6.77;;;2.77;;
15102;SDS011;7652;53.584;9.998;2023-03-14T03:26:22;6.80;;;2.77;;
15102;SDS011;7652;53.584;9.998;2023-03-14T03:29:26;4.53;;;2.27;;
15102;SDS011;7652;53.584;9.998;2023-03-14T03:32:29;5.67;;;2.33;;
15102;SDS011;7652;53.584;9.998;2023-03-14T03:35:32;4.33;;;2.07;;
15102;SDS011;7652;53.584;9.998;2023-03-14T03:38:35;4.53;;;2.53;;
15102;SDS011;7652;53.584;9.998;2023-03-14T03:41:39;5.13;;;2.27;;
15102;SDS011;7652;53.584;9.998;2023-03-14T03:44:43;6.37;;;2.10;;
15102;SDS011;7652;53.584;9.998;2023-03-14T03:47:46;4.07;;;2.47;;
15102;SDS011;7652;53.584;9.998;2023-03-14T03:50:49;6.97;;;2.40;;
15102;SDS011;7652;53.584;9.998;2023-03-14T03:53:52;6.03;;;2.37;;
15102;SDS011;7652;53.584;9.998;2023-03-14T03:56:55;5.53;;;2.07;;
15102;SDS011;7652;53.584;9.998;2023-03-14T03:59:59;8.67;;;2.20;;
15102;SDS011;7652;53.584;9.998;2023-03-14T04:03:02;8.03;;;2.07;;
15102;SDS011;7652;53.584;9.998;2023-03-14T04:06:06;6.97;;;2.00;;
15102;SDS011;7652;53.584;9.998;2023-03-14T04:09:11;3.80;;;2.20;;
15102;SDS011;7652;53.584;9.998;2023-03-14T04:12:15;5.27;;;2.17;;
15102;SDS011;7652;53.584;9.998;2023-03-14T04:15:19;7.57;;;2.40;;
15102;SDS011;7652;53.584;9.998;2023-03-14T04:18:22;4.97;;;2.20;;
15102;SDS011;7652;53.584;9.998;2023-03-14T04:21:26;5.93;;;2.00;;
15102;SDS011;7652;53.584;9.998;2023-03-14T04:24:29;6.13;;;2.27;;
15102;SDS011;7652;53.584;9.998;2023-03-14T04:27:32;4.60;;;2.17;;
15102;SDS011;7652;53.584;9.998;2023-03-14T04:30:36;5.03;;;2.37;;
15102;SDS011;7652;53.584;9.998;2023-03-14T04:33:39;7.77;;;2.43;;
15102;SDS011;7652;53.584;9.998;2023-03-14T04:36:45;3.50;;;2.17;;
15102;SDS011;7652;53.584;9.998;2023-03-14T04:39:49;6.30;;;2.40;;
15102;SDS011;7652;53.584;9.998;2023-03-14T04:42:52;4.43;;;2.03;;
15102;SDS011;7652;53.584;9.998;2023-03-14T04:45:57;8.13;;;2.67;;
15102;SDS011;7652;53.584;9.998;2023-03-14T04:49:00;6.40;;;2.80;;
15102;SDS011;7652;53.584;9.998;2023-03-14T04:52:03;7.87;;;3.17;;
15102;SDS011;7652;53.584;9.998;2023-03-14T04:55:06;4.37;;;2.67;;
15102;SDS011;7652;53.584;9.998;2023-03-14T04:58:09;6.93;;;2.90;;
15102;SDS011;7652;53.584;9.998;2023-03-14T05:01:14;3.73;;;2.27;;
15102;SDS011;7652;53.584;9.998;2023-03-14T05:04:17;6.33;;;2.30;;
15102;SDS011;7652;53.584;9.998;2023-03-14T05:07:20;6.30;;;2.37;;
15102;SDS011;7652;53.584;9.998;2023-03-14T05:10:23;4.80;;;2.17;;
15102;SDS011;7652;53.584;9.998;2023-03-14T05:13:26;5.33;;;1.97;;
15102;SDS011;7652;53.584;9.998;2023-03-14T05:16:31;2.17;;;1.53;;
15102;SDS011;7652;53.584;9.998;2023-03-14T05:19:34;4.60;;;1.77;;
15102;SDS011;7652;53.584;9.998;2023-03-14T05:22:37;3.33;;;1.40;;
15102;SDS011;7652;53.584;9.998;2023-03-14T05:25:42;2.73;;;1.50;;
15102;SDS011;7652;53.584;9.998;2023-03-14T05:28:45;2.07;;;1.70;;
15102;SDS011;7652;53.584;9.998;2023-03-14T05:31:49;4.47;;;2.10;;
15102;SDS011;7652;53.584;9.998;2023-03-14T05:34:52;2.30;;;1.80;;
15102;SDS011;7652;53.584;9.998;2023-03-14T05:37:59;1.60;;;1.47;;
15102;SDS011;7652;53.584;9.998;2023-03-14T05:41:02;5.30;;;2.07;;
15102;SDS011;7652;53.584;9.998;2023-03-14T05:44:06;2.43;;;2.17;;
15102;SDS011;7652;53.584;9.998;2023-03-14T05:47:10;3.83;;;2.63;;
15102;SDS011;7652;53.584;9.998;2023-03-14T05:50:13;5.60;;;2.13;;
15102;SDS011;7652;53.584;9.998;2023-03-14T05:53:16;4.77;;;2.30;;
15102;SDS011;7652;53.584;9.998;2023-03-14T05:56:19;5.30;;;2.27;;
15102;SDS011;7652;53.584;9.998;2023-03-14T05:59:22;4.30;;;2.40;;
15102;SDS011;7652;53.584;9.998;2023-03-14T06:02:26;5.73;;;2.57;;
15102;SDS011;7652;53.584;9.998;2023-03-14T06:05:29;6.23;;;3.40;;
15102;SDS011;7652;53.584;9.998;2023-03-14T06:08:32;4.23;;;3.33;;
15102;SDS011;7652;53.584;9.998;2023-03-14T06:11:35;6.93;;;3.43;;
15102;SDS011;7652;53.584;9.998;2023-03-14T06:14:38;6.17;;;3.70;;
15102;SDS011;7652;53.584;9.998;2023-03-14T06:17:43;6.50;;;3.80;;
15102;SDS011;7652;53.584;9.998;2023-03-14T06:20:45;7.13;;;3.40;;
15102;SDS011;7652;53.584;9.998;2023-03-14T06:23:49;6.50;;;3.33;;
15102;SDS011;7652;53.584;9.998;2023-03-14T06:26:52;5.80;;;4.00;;
15102;SDS011;7652;53.584;9.998;2023-03-14T06:29:55;6.67;;;4.23;;
15102;SDS011;7652;53.584;9.998;2023-03-14T06:32:59;8.03;;;3.70;;
15102;SDS011;7652;53.584;9.998;2023-03-14T06:36:02;6.20;;;3.30;;
15102;SDS011;7652;53.584;9.998;2023-03-14T06:39:05;7.30;;;3.23;;
15102;SDS011;7652;53.584;9.998;2023-03-14T06:42:09;5.50;;;2.87;;
15102;SDS011;7652;53.584;9.998;2023-03-14T06:45:12;4.73;;;2.83;;
15102;SDS011;7652;53.584;9.998;2023-03-14T06:48:16;7.83;;;3.30;;
15102;SDS011;7652;53.584;9.998;2023-03-14T06:51:20;4.80;;;2.83;;
15102;SDS011;7652;53.584;9.998;2023-03-14T06:54:23;5.33;;;2.60;;
15102;SDS011;7652;53.584;9.998;2023-03-14T06:57:26;7.23;;;3.30;;
15102;SDS011;7652;53.584;9.998;2023-03-14T07:00:29;6.87;;;2.57;;
15102;SDS011;7652;53.584;9.998;2023-03-14T07:03:33;4.13;;;2.20;;
15102;SDS011;7652;53.584;9.998;2023-03-14T07:06:36;8.83;;;2.60;;
15102;SDS011;7652;53.584;9.998;2023-03-14T07:09:40;3.97;;;1.70;;
15102;SDS011;7652;53.584;9.998;2023-03-14T07:12:43;4.37;;;2.10;;
15102;SDS011;7652;53.584;9.998;2023-03-14T07:15:46;5.70;;;1.90;;
15102;SDS011;7652;53.584;9.998;2023-03-14T07:18:51;5.93;;;1.83;;
15102;SDS011;7652;53.584;9.998;2023-03-14T07:21:54;5.93;;;1.97;;
15102;SDS011;7652;53.584;9.998;2023-03-14T07:24:57;5.97;;;1.43;;
15102;SDS011;7652;53.584;9.998;2023-03-14T07:28:00;3.30;;;1.67;;
15102;SDS011;7652;53.584;9.998;2023-03-14T07:31:03;3.60;;;1.40;;
15102;SDS011;7652;53.584;9.998;2023-03-14T07:34:08;5.87;;;1.77;;
15102;SDS011;7652;53.584;9.998;2023-03-14T07:37:12;2.47;;;1.40;;
15102;SDS011;7652;53.584;9.998;2023-03-14T07:40:15;4.13;;;1.90;;
15102;SDS011;7652;53.584;9.998;2023-03-14T07:43:18;5.00;;;2.03;;
15102;SDS011;7652;53.584;9.998;2023-03-14T07:46:21;5.40;;;2.00;;
15102;SDS011;7652;53.584;9.998;2023-03-14T07:49:25;4.97;;;1.67;;
15102;SDS011;7652;53.584;9.998;2023-03-14T07:52:28;5.00;;;1.67;;
15102;SDS011;7652;53.584;9.998;2023-03-14T07:55:31;4.67;;;2.40;;
15102;SDS011;7652;53.584;9.998;2023-03-14T07:58:34;6.80;;;1.70;;
15102;SDS011;7652;53.584;9.998;2023-03-14T08:01:37;4.27;;;1.53;;
15102;SDS011;7652;53.584;9.998;2023-03-14T08:04:42;3.27;;;1.30;;
15102;SDS011;7652;53.584;9.998;2023-03-14T08:07:45;2.63;;;1.50;;
15102;SDS011;7652;53.584;9.998;2023-03-14T08:10:48;3.43;;;1.03;;
15102;SDS011;7652;53.584;9.998;2023-03-14T08:13:51;3.63;;;1.43;;
15102;SDS011;7652;53.584;9.998;2023-03-14T08:16:54;3.50;;;1.30;;
15102;SDS011;7652;53.584;9.998;2023-03-14T08:19:58;4.70;;;1.53;;
15102;SDS011;7652;53.584;9.998;2023-03-14T08:23:01;2.53;;;1.20;;
15102;SDS011;7652;53.584;9.998;2023-03-14T08:26:04;2.90;;;1.17;;
15102;SDS011;7652;53.584;9.998;2023-03-14T08:29:08;1.90;;;1.10;;
15102;SDS011;7652;53.584;9.998;2023-03-14T08:32:11;3.20;;;1.60;;
15102;SDS011;7652;53.584;9.998;2023-03-14T08:35:15;1.93;;;1.20;;
15102;SDS011;7652;53.584;9.998;2023-03-14T08:38:18;3.57;;;1.50;;
15102;SDS011;7652;53.584;9.998;2023-03-14T08:41:21;2.73;;;1.53;;
15102;SDS011;7652;53.584;9.998;2023-03-14T08:44:24;5.53;;;1.80;;
15102;SDS011;7652;53.584;9.998;2023-03-14T08:47:27;2.83;;;1.83;;
15102;SDS011;7652;53.584;9.998;2023-03-14T08:50:32;4.50;;;1.80;;
15102;SDS011;7652;53.584;9.998;2023-03-14T08:53:35;4.20;;;1.73;;
15102;SDS011;7652;53.584;9.998;2023-03-14T08:56:39;5.40;;;2.50;;
15102;SDS011;7652;53.584;9.998;2023-03-14T08:59:42;7.23;;;2.57;;
15102;SDS011;7652;53.584;9.998;2023-03-14T09:02:45;4.93;;;2.77;;
15102;SDS011;7652;53.584;9.998;2023-03-14T09:05:50;5.70;;;2.17;;
15102;SDS011;7652;53.584;9.998;2023-03-14T09:08:53;5.43;;;2.30;;
15102;SDS011;7652;53.584;9.998;2023-03-14T09:11:56;5.80;;;2.50;;
15102;SDS011;7652;53.584;9.998;2023-03-14T09:14:59;7.73;;;2.73;;
15102;SDS011;7652;53.584;9.998;2023-03-14T09:18:03;4.43;;;2.53;;
15102;SDS011;7652;53.584;9.998;2023-03-14T09:21:07;6.00;;;2.40;;
15102;SDS011;7652;53.584;9.998;2023-03-14T09:24:10;4.30;;;2.23;;
15102;SDS011;7652;53.584;9.998;2023-03-14T09:27:13;9.67;;;3.47;;
15102;SDS011;7652;53.584;9.998;2023-03-14T09:30:16;3.70;;;2.40;;
15102;SDS011;7652;53.584;9.998;2023-03-14T09:33:19;3.83;;;2.53;;
15102;SDS011;7652;53.584;9.998;2023-03-14T09:36:24;6.83;;;2.87;;
15102;SDS011;7652;53.584;9.998;2023-03-14T09:39:27;8.00;;;2.33;;
15102;SDS011;7652;53.584;9.998;2023-03-14T09:42:30;7.13;;;2.70;;
15102;SDS011;7652;53.584;9.998;2023-03-14T09:45:34;4.13;;;2.47;;
15102;SDS011;7652;53.584;9.998;2023-03-14T09:48:38;4.13;;;2.27;;
15102;SDS011;7652;53.584;9.998;2023-03-14T09:51:44;7.03;;;3.40;;
15102;SDS011;7652;53.584;9.998;2023-03-14T09:54:49;4.13;;;2.63;;
15102;SDS011;7652;53.584;9.998;2023-03-14T09:57:54;2.80;;;1.40;;
15102;SDS011;7652;53.584;9.998;2023-03-14T10:01:01;1.00;;;0.80;;
15102;SDS011;7652;53.584;9.998;2023-03-14T10:04:06;3.50;;;0.90;;
15102;SDS011;7652;53.584;9.998;2023-03-14T10:07:16;0.87;;;0.77;;
15102;SDS011;7652;53.584;9.998;2023-03-14T10:10:22;0.60;;;0.60;;
15102;SDS011;7652;53.584;9.998;2023-03-14T10:13:27;3.10;;;1.00;;
15102;SDS011;7652;53.584;9.998;2023-03-14T10:16:34;1.33;;;0.70;;
15102;SDS011;7652;53.584;9.998;2023-03-14T10:19:39;1.93;;;1.00;;
15102;SDS011;7652;53.584;9.998;2023-03-14T10:22:54;1.53;;;0.80;;
15102;SDS011;7652;53.584;9.998;2023-03-14T10:25:59;0.60;;;0.60;;
15102;SDS011;7652;53.584;9.998;2023-03-14T10:29:08;0.93;;;0.50;;
15102;SDS011;7652;53.584;9.998;2023-03-14T10:32:18;1.20;;;0.60;;
15102;SDS011;7652;53.584;9.998;2023-03-14T10:35:23;0.67;;;0.50;;
15102;SDS011;7652;53.584;9.998;2023-03-14T10:38:28;1.10;;;0.47;;
15102;SDS011;7652;53.584;9.998;2023-03-14T10:41:32;1.23;;;0.30;;
15102;SDS011;7652;53.584;9.998;2023-03-14T10:44:36;0.30;;;0.30;;
15102;SDS011;7652;53.584;9.998;2023-03-14T10:47:46;0.83;;;0.50;;
15102;SDS011;7652;53.584;9.998;2023-03-14T10:50:55;0.97;;;0.43;;
15102;SDS011;7652;53.584;9.998;2023-03-14T10:54:01;1.87;;;0.50;;
15102;SDS011;7652;53.584;9.998;2023-03-14T10:57:05;0.77;;;0.43;;
15102;SDS011;7652;53.584;9.998;2023-03-14T11:00:12;0.40;;;0.20;;
15102;SDS011;7652;53.584;9.998;2023-03-14T11:03:18;1.10;;;0.50;;
15102;SDS011;7652;53.584;9.998;2023-03-14T11:06:23;0.60;;;0.20;;
15102;SDS011;7652;53.584;9.998;2023-03-14T11:09:34;1.17;;;0.50;;
15102;SDS011;7652;53.584;9.998;2023-03-14T11:12:46;0.67;;;0.30;;
15102;SDS011;7652;53.584;9.998;2023-03-14T11:16:05;2.93;;;0.40;;
15102;SDS011;7652;53.584;9.998;2023-03-14T11:19:17;3.90;;;0.53;;
15102;SDS011;7652;53.584;9.998;2023-03-14T11:22:35;0.50;;;0.30;;
15102;SDS011;7652;53.584;9.998;2023-03-14T11:25:46;0.83;;;0.50;;
15102;SDS011;7652;53.584;9.998;2023-03-14T11:28:56;0.90;;;0.37;;
15102;SDS011;7652;53.584;9.998;2023-03-14T11:32:04;1.27;;;0.63;;
15102;SDS011;7652;53.584;9.998;2023-03-14T11:35:16;2.63;;;0.70;;
15102;SDS011;7652;53.584;9.998;2023-03-14T11:38:29;0.83;;;0.47;;
15102;SDS011;7652;53.584;9.998;2023-03-14T11:41:37;2.50;;;0.60;;
15102;SDS011;7652;53.584;9.998;2023-03-14T11:44:42;5.33;;;0.93;;
15102;SDS011;7652;53.584;9.998;2023-03-14T11:47:49;3.73;;;0.77;;
15102;SDS011;7652;53.584;9.998;2023-03-14T11:50:56;1.57;;;0.87;;
15102;SDS011;7652;53.584;9.998;2023-03-14T11:54:03;2.37;;;0.67;;
15102;SDS011;7652;53.584;9.998;2023-03-14T11:57:18;2.33;;;0.70;;
15102;SDS011;7652;53.584;9.998;2023-03-14T12:00:23;5.03;;;0.87;;
15102;SDS011;7652;53.584;9.998;2023-03-14T12:03:29;2.50;;;0.70;;
15102;SDS011;7652;53.584;9.998;2023-03-14T12:06:38;2.73;;;0.87;;
15102;SDS011;7652;53.584;9.998;2023-03-14T12:09:48;3.93;;;1.00;;
15102;SDS011;7652;53.584;9.998;2023-03-14T12:12:54;4.30;;;0.90;;
15102;SDS011;7652;53.584;9.998;2023-03-14T12:15:57;3.00;;;0.77;;
15102;SDS011;7652;53.584;9.998;2023-03-14T12:19:13;1.43;;;0.50;;
15102;SDS011;7652;53.584;9.998;2023-03-14T12:22:25;2.83;;;0.73;;
15102;SDS011;7652;53.584;9.998;2023-03-14T12:25:30;4.00;;;0.80;;
15102;SDS011;7652;53.584;9.998;2023-03-14T12:28:37;5.60;;;1.10;;
15102;SDS011;7652;53.584;9.998;2023-03-14T12:31:41;3.13;;;0.87;;
15102;SDS011;7652;53.584;9.998;2023-03-14T12:34:45;5.10;;;1.53;;
15102;SDS011;7652;53.584;9.998;2023-03-14T12:37:48;4.93;;;1.30;;
15102;SDS011;7652;53.584;9.998;2023-03-14T12:40:57;7.03;;;1.17;;
15102;SDS011;7652;53.584;9.998;2023-03-14T12:47:57;4.83;;;1.10;;
15102;SDS011;7652;53.584;9.998;2023-03-14T12:51:12;6.53;;;0.97;;
15102;SDS011;7652;53.584;9.998;2023-03-14T12:57:45;8.10;;;1.20;;
15102;SDS011;7652;53.584;9.998;2023-03-14T13:00:59;3.47;;;1.20;;
15102;SDS011;7652;53.584;9.998;2023-03-14T13:04:07;4.57;;;1.57;;
15102;SDS011;7652;53.584;9.998;2023-03-14T13:07:13;6.47;;;1.50;;
15102;SDS011;7652;53.584;9.998;2023-03-14T13:10:31;6.30;;;2.17;;
15102;SDS011;7652;53.584;9.998;2023-03-14T13:13:45;7.43;;;2.30;;
15102;SDS011;7652;53.584;9.998;2023-03-14T13:16:49;8.10;;;1.60;;
15102;SDS011;7652;53.584;9.998;2023-03-14T13:19:55;7.40;;;1.90;;
15102;SDS011;7652;53.584;9.998;2023-03-14T13:23:02;4.73;;;1.50;;
15102;SDS011;7652;53.584;9.998;2023-03-14T13:26:08;5.33;;;1.43;;
15102;SDS011;7652;53.584;9.998;2023-03-14T13:29:16;4.00;;;1.40;;
15102;SDS011;7652;53.584;9.998;2023-03-14T13:32:21;7.60;;;2.03;;
15102;SDS011;7652;53.584;9.998;2023-03-14T13:35:37;6.43;;;1.23;;
15102;SDS011;7652;53.584;9.998;2023-03-14T13:38:42;9.67;;;1.80;;
15102;SDS011;7652;53.584;9.998;2023-03-14T13:41:45;6.10;;;1.23;;
15102;SDS011;7652;53.584;9.998;2023-03-14T13:44:49;3.47;;;1.20;;
15102;SDS011;7652;53.584;9.998;2023-03-14T13:47:54;4.57;;;1.03;;
15102;SDS011;7652;53.584;9.998;2023-03-14T13:51:00;3.40;;;0.93;;
15102;SDS011;7652;53.584;9.998;2023-03-14T13:54:12;5.53;;;1.53;;
15102;SDS011;7652;53.584;9.998;2023-03-14T13:57:16;4.30;;;1.00;;
15102;SDS011;7652;53.584;9.998;2023-03-14T14:00:20;5.20;;;1.60;;
15102;SDS011;7652;53.584;9.998;2023-03-14T14:03:25;4.17;;;1.37;;
15102;SDS011;7652;53.584;9.998;2023-03-14T14:06:31;9.83;;;1.70;;
15102;SDS011;7652;53.584;9.998;2023-03-14T14:09:37;8.60;;;1.30;;
15102;SDS011;7652;53.584;9.998;2023-03-14T14:12:42;9.53;;;1.83;;
15102;SDS011;7652;53.584;9.998;2023-03-14T14:15:51;7.40;;;1.83;;
15102;SDS011;7652;53.584;9.998;2023-03-14T14:18:56;3.37;;;1.00;;
15102;SDS011;7652;53.584;9.998;2023-03-14T14:22:03;4.77;;;1.20;;
15102;SDS011;7652;53.584;9.998;2023-03-14T14:25:12;8.93;;;2.37;;
15102;SDS011;7652;53.584;9.998;2023-03-14T14:28:17;6.93;;;1.40;;
15102;SDS011;7652;53.584;9.998;2023-03-14T14:31:25;9.53;;;1.20;;
15102;SDS011;7652;53.584;9.998;2023-03-14T14:34:28;4.87;;;1.20;;
15102;SDS011;7652;53.584;9.998;2023-03-14T14:37:33;8.00;;;1.50;;
15102;SDS011;7652;53.584;9.998;2023-03-14T14:40:43;6.77;;;1.60;;
15102;SDS011;7652;53.584;9.998;2023-03-14T14:43:47;3.90;;;1.37;;
15102;SDS011;7652;53.584;9.998;2023-03-14T14:46:51;7.30;;;1.40;;
15102;SDS011;7652;53.584;9.998;2023-03-14T14:49:55;7.00;;;1.10;;
15102;SDS011;7652;53.584;9.998;2023-03-14T14:53:16;2.90;;;1.00;;
15102;SDS011;7652;53.584;9.998;2023-03-14T14:56:25;3.97;;;0.80;;
15102;SDS011;7652;53.584;9.998;2023-03-14T14:59:30;4.27;;;1.07;;
15102;SDS011;7652;53.584;9.998;2023-03-14T15:02:35;2.87;;;0.83;;
15102;SDS011;7652;53.584;9.998;2023-03-14T15:05:45;4.90;;;0.83;;
15102;SDS011;7652;53.584;9.998;2023-03-14T15:08:49;4.70;;;0.93;;
15102;SDS011;7652;53.584;9.998;2023-03-14T15:11:52;4.17;;;1.10;;
15102;SDS011;7652;53.584;9.998;2023-03-14T15:14:55;5.53;;;1.63;;
15102;SDS011;7652;53.584;9.998;2023-03-14T15:17:59;4.77;;;1.30;;
15102;SDS011;7652;53.584;9.998;2023-03-14T15:21:02;4.17;;;1.43;;
15102;SDS011;7652;53.584;9.998;2023-03-14T15:24:07;6.00;;;1.47;;
15102;SDS011;7652;53.584;9.998;2023-03-14T15:27:12;7.30;;;1.27;;
15102;SDS011;7652;53.584;9.998;2023-03-14T15:30:17;6.47;;;1.67;;
15102;SDS011;7652;53.584;9.998;2023-03-14T15:33:20;7.53;;;1.60;;
15102;SDS011;7652;53.584;9.998;2023-03-14T15:36:25;3.87;;;1.20;;
15102;SDS011;7652;53.584;9.998;2023-03-14T15:39:33;8.40;;;1.63;;
15102;SDS011;7652;53.584;9.998;2023-03-14T15:42:36;7.03;;;1.33;;
15102;SDS011;7652;53.584;9.998;2023-03-14T15:45:39;7.33;;;1.50;;
15102;SDS011;7652;53.584;9.998;2023-03-14T15:48:43;5.00;;;1.40;;
15102;SDS011;7652;53.584;9.998;2023-03-14T15:51:46;6.67;;;1.20;;
15102;SDS011;7652;53.584;9.998;2023-03-14T15:54:51;7.10;;;1.60;;
15102;SDS011;7652;53.584;9.998;2023-03-14T15:57:54;4.10;;;1.30;;
15102;SDS011;7652;53.584;9.998;2023-03-14T16:00:57;5.33;;;1.47;;
15102;SDS011;7652;53.584;9.998;2023-03-14T16:04:00;8.00;;;1.30;;
15102;SDS011;7652;53.584;9.998;2023-03-14T16:07:03;3.83;;;1.17;;
15102;SDS011;7652;53.584;9.998;2023-03-14T16:10:09;5.00;;;1.23;;
15102;SDS011;7652;53.584;9.998;2023-03-14T16:13:14;6.23;;;1.53;;
15102;SDS011;7652;53.584;9.998;2023-03-14T16:16:17;7.17;;;1.20;;
15102;SDS011;7652;53.584;9.998;2023-03-14T16:19:21;5.40;;;1.27;;
15102;SDS011;7652;53.584;9.998;2023-03-14T16:22:24;8.93;;;1.70;;
15102;SDS011;7652;53.584;9.998;2023-03-14T16:25:28;6.33;;;1.40;;
15102;SDS011;7652;53.584;9.998;2023-03-14T16:28:31;6.33;;;1.20;;
15102;SDS011;7652;53.584;9.998;2023-03-14T16:31:34;7.03;;;1.47;;
15102;SDS011;7652;53.584;9.998;2023-03-14T16:34:43;4.63;;;1.27;;
15102;SDS011;7652;53.584;9.998;2023-03-14T16:37:46;4.03;;;1.07;;
15102;SDS011;7652;53.584;9.998;2023-03-14T16:40:57;5.07;;;1.00;;
15102;SDS011;7652;53.584;9.998;2023-03-14T16:44:01;7.37;;;1.50;;
15102;SDS011;7652;53.584;9.998;2023-03-14T16:47:04;6.43;;;1.30;;
15102;SDS011;7652;53.584;9.998;2023-03-14T16:50:11;2.63;;;1.17;;
15102;SDS011;7652;53.584;9.998;2023-03-14T16:53:14;4.37;;;1.30;;
15102;SDS011;7652;53.584;9.998;2023-03-14T16:56:18;5.87;;;1.20;;
15102;SDS011;7652;53.584;9.998;2023-03-14T16:59:21;6.07;;;1.00;;
15102;SDS011;7652;53.584;9.998;2023-03-14T17:02:25;5.60;;;1.30;;
15102;SDS011;7652;53.584;9.998;2023-03-14T17:05:28;6.70;;;0.93;;
15102;SDS011;7652;53.584;9.998;2023-03-14T17:08:31;6.80;;;1.43;;
15102;SDS011;7652;53.584;9.998;2023-03-14T17:11:36;4.87;;;1.23;;
15102;SDS011;7652;53.584;9.998;2023-03-14T17:14:39;6.77;;;1.37;;
15102;SDS011;7652;53.584;9.998;2023-03-14T17:17:42;10.03;;;1.93;;
15102;SDS011;7652;53.584;9.998;2023-03-14T17:20:45;5.63;;;1.67;;
15102;SDS011;7652;53.584;9.998;2023-03-14T17:23:49;2.67;;;1.07;;
15102;SDS011;7652;53.584;9.998;2023-03-14T17:26:53;5.83;;;1.23;;
15102;SDS011;7652;53.584;9.998;2023-03-14T17:29:56;9.17;;;1.23;;
15102;SDS011;7652;53.584;9.998;2023-03-14T17:32:59;6.00;;;1.13;;
15102;SDS011;7652;53.584;9.998;2023-03-14T17:36:02;5.03;;;1.10;;
15102;SDS011;7652;53.584;9.998;2023-03-14T17:39:06;3.53;;;0.93;;
15102;SDS011;7652;53.584;9.998;2023-03-14T17:42:11;4.87;;;1.17;;
15102;SDS011;7652;53.584;9.998;2023-03-14T17:45:14;3.87;;;1.20;;
15102;SDS011;7652;53.584;9.998;2023-03-14T17:48:17;6.13;;;1.30;;
15102;SDS011;7652;53.584;9.998;2023-03-14T17:51:20;4.90;;;1.33;;
15102;SDS011;7652;53.584;9.998;2023-03-14T17:54:23;8.40;;;1.80;;
15102;SDS011;7652;53.584;9.998;2023-03-14T17:57:28;9.77;;;1.50;;
15102;SDS011;7652;53.584;9.998;2023-03-14T18:00:31;4.10;;;1.00;;
15102;SDS011;7652;53.584;9.998;2023-03-14T18:03:34;6.87;;;1.27;;
15102;SDS011;7652;53.584;9.998;2023-03-14T18:06:37;6.97;;;0.90;;
15102;SDS011;7652;53.584;9.998;2023-03-14T18:09:40;5.50;;;1.43;;
15102;SDS011;7652;53.584;9.998;2023-03-14T18:12:45;6.80;;;1.20;;
15102;SDS011;7652;53.584;9.998;2023-03-14T18:15:48;5.20;;;2.30;;
15102;SDS011;7652;53.584;9.998;2023-03-14T18:18:52;6.37;;;1.70;;
15102;SDS011;7652;53.584;9.998;2023-03-14T18:21:57;7.67;;;1.33;;
15102;SDS011;7652;53.584;9.998;2023-03-14T18:25:00;6.83;;;1.30;;
15102;SDS011;7652;53.584;9.998;2023-03-14T18:28:05;6.70;;;1.70;;
15102;SDS011;7652;53.584;9.998;2023-03-14T18:31:09;4.77;;;1.37;;
15102;SDS011;7652;53.584;9.998;2023-03-14T18:34:13;6.37;;;1.60;;
15102;SDS011;7652;53.584;9.998;2023-03-14T18:37:16;5.60;;;1.27;;
15102;SDS011;7652;53.584;9.998;2023-03-14T18:40:19;5.43;;;1.33;;
15102;SDS011;7652;53.584;9.998;2023-03-14T18:43:24;5.27;;;1.40;;
15102;SDS011;7652;53.584;9.998;2023-03-14T18:46:27;12.23;;;1.70;;
15102;SDS011;7652;53.584;9.998;2023-03-14T18:49:31;4.87;;;1.47;;
15102;SDS011;7652;53.584;9.998;2023-03-14T18:52:36;3.87;;;1.10;;
15102;SDS011;7652;53.584;9.998;2023-03-14T18:55:39;5.83;;;1.17;;